Time;durP1;ratioP1;P1;durP2;ratioP2;P2;SDS_P1;SDS_P2;PMS_P1;PMS_P2;Temp;Humidity;BMP_temperature;BMP_pressure;BME280_temperature;BME280_humidity;BME280_pressure;Samples;Min_cycle;Max_cycle;Signal;HPM_P1;HPM_P2
2022/03/23 00:02:26;;;;;;;6.37;3.27;;;23.30;38.50;;;;;;5069676;27;88649;-69
2022/03/23 00:04:54;;;;;;;4.50;3.30;;;23.30;38.50;;;;;;5079009;27;89318;-69
2022/03/23 00:07:24;;;;;;;4.20;2.90;;;23.30;38.50;;;;;;5079673;27;88594;-69
2022/03/23 00:09:52;;;;;;;4.90;3.17;;;23.30;38.50;;;;;;5072581;27;88875;-70
2022/03/23 00:12:25;;;;;;;4.20;3.03;;;23.30;38.60;;;;;;5079952;27;88412;-70
2022/03/23 00:14:53;;;;;;;3.27;2.80;;;23.30;38.60;;;;;;5078626;27;89842;-70
2022/03/23 00:17:21;;;;;;;5.13;3.30;;;23.30;38.70;;;;;;5079372;27;88559;-69
2022/03/23 00:19:49;;;;;;;4.97;3.07;;;23.20;38.60;;;;;;5076251;27;88522;-69
2022/03/23 00:22:18;;;;;;;5.03;3.60;;;23.30;38.70;;;;;;5059606;27;88516;-69
2022/03/23 00:24:48;;;;;;;4.67;3.23;;;23.20;39.30;;;;;;5066797;27;89262;-69
2022/03/23 00:27:16;;;;;;;5.03;3.10;;;23.20;38.70;;;;;;5078635;27;90107;-70
2022/03/23 00:29:44;;;;;;;3.37;3.07;;;23.20;38.70;;;;;;5081294;27;88837;-69
2022/03/23 00:32:14;;;;;;;5.53;3.27;;;23.20;38.70;;;;;;5083576;27;88399;-69
2022/03/23 00:34:42;;;;;;;4.93;3.00;;;23.20;38.80;;;;;;5082161;27;89493;-69
2022/03/23 00:37:10;;;;;;;4.53;2.90;;;23.20;38.80;;;;;;5082214;27;91231;-69
2022/03/23 00:39:38;;;;;;;3.40;2.60;;;23.10;38.80;;;;;;5080376;27;88497;-69
2022/03/23 00:42:08;;;;;;;4.03;2.80;;;23.20;38.80;;;;;;5082421;27;88641;-70
2022/03/23 00:44:36;;;;;;;6.40;3.10;;;23.20;38.90;;;;;;5064397;27;90164;-69
2022/03/23 00:47:05;;;;;;;5.43;3.13;;;23.10;38.80;;;;;;5061438;27;88809;-69
2022/03/23 00:49:33;;;;;;;4.67;2.80;;;23.20;39.00;;;;;;5062116;27;89249;-69
2022/03/23 00:52:06;;;;;;;4.93;3.47;;;23.10;38.90;;;;;;5062878;27;88445;-69
2022/03/23 00:54:35;;;;;;;4.90;3.50;;;23.10;39.00;;;;;;5066508;27;89317;-69
2022/03/23 00:57:03;;;;;;;4.37;3.30;;;23.20;39.10;;;;;;5082925;27;89545;-70
2022/03/23 00:59:33;;;;;;;4.27;3.43;;;23.20;39.20;;;;;;5076928;27;90047;-70
2022/03/23 01:02:02;;;;;;;3.93;3.30;;;23.20;39.20;;;;;;5061944;27;88582;-70
2022/03/23 01:04:30;;;;;;;5.57;3.07;;;23.10;39.10;;;;;;5062110;27;89788;-69
2022/03/23 01:06:59;;;;;;;4.63;3.30;;;23.10;39.10;;;;;;5061554;27;91873;-69
2022/03/23 01:09:29;;;;;;;4.60;3.20;;;23.10;39.10;;;;;;5061666;27;88585;-69
2022/03/23 01:11:57;;;;;;;4.27;2.90;;;23.10;39.10;;;;;;5061871;27;88509;-70
2022/03/23 01:14:26;;;;;;;3.43;3.10;;;23.10;39.10;;;;;;5062904;27;90714;-69
2022/03/23 01:16:55;;;;;;;3.50;2.90;;;23.10;39.20;;;;;;5062125;27;89981;-69
2022/03/23 01:19:27;;;;;;;4.67;2.90;;;23.10;39.20;;;;;;5062226;27;89057;-69
2022/03/23 01:21:55;;;;;;;6.00;3.20;;;23.00;39.20;;;;;;5062400;27;88372;-69
2022/03/23 01:24:26;;;;;;;5.90;3.23;;;23.00;39.20;;;;;;5064041;27;89498;-69
2022/03/23 01:26:55;;;;;;;5.13;2.93;;;23.00;39.20;;;;;;5082240;27;89221;-70
2022/03/23 01:29:23;;;;;;;5.30;3.50;;;23.00;39.20;;;;;;5077754;27;88401;-70
2022/03/23 01:31:51;;;;;;;4.87;3.40;;;23.00;39.20;;;;;;5062083;27;89088;-70
2022/03/23 01:34:20;;;;;;;5.17;3.43;;;23.00;39.30;;;;;;5062059;27;90672;-70
2022/03/23 01:36:49;;;;;;;4.13;3.47;;;23.00;39.30;;;;;;5060375;27;89172;-70
2022/03/23 01:39:17;;;;;;;4.67;3.27;;;23.00;39.30;;;;;;5063976;27;91685;-70
2022/03/23 01:41:45;;;;;;;5.60;3.37;;;23.00;39.30;;;;;;5081782;27;88647;-69
2022/03/23 01:44:15;;;;;;;4.27;2.90;;;23.00;39.30;;;;;;5082054;27;92101;-69
2022/03/23 01:47:07;;;;;;;4.27;3.17;;;22.90;39.30;;;;;;5080099;27;90115;-70
2022/03/23 01:49:37;;;;;;;3.40;2.90;;;22.90;39.30;;;;;;5076052;27;88449;-69
2022/03/23 01:52:06;;;;;;;4.67;3.10;;;22.90;39.30;;;;;;5080222;27;88665;-69
2022/03/23 01:54:35;;;;;;;4.73;3.33;;;22.90;39.40;;;;;;5080943;27;90970;-69
2022/03/23 01:57:03;;;;;;;6.57;3.40;;;22.90;39.50;;;;;;5081768;27;90179;-69
2022/03/23 01:59:32;;;;;;;4.80;3.10;;;22.90;39.60;;;;;;5069334;27;88435;-69
2022/03/23 02:02:00;;;;;;;6.40;3.47;;;22.90;39.60;;;;;;5060874;27;88613;-69
2022/03/23 02:04:28;;;;;;;4.20;3.50;;;22.90;39.60;;;;;;5060055;27;90552;-69
2022/03/23 02:06:58;;;;;;;5.27;3.13;;;22.90;39.70;;;;;;5065323;27;88466;-69
2022/03/23 02:09:26;;;;;;;3.73;3.10;;;22.90;39.70;;;;;;5064626;27;89774;-70
2022/03/23 02:11:54;;;;;;;6.17;3.40;;;22.90;39.70;;;;;;5062292;27;88411;-69
2022/03/23 02:14:22;;;;;;;3.90;3.10;;;22.90;39.80;;;;;;5076024;27;89539;-70
2022/03/23 02:16:51;;;;;;;4.30;2.90;;;22.90;39.80;;;;;;5080294;27;90241;-69
2022/03/23 02:19:21;;;;;;;4.47;3.30;;;22.80;39.70;;;;;;5080241;27;89259;-70
2022/03/23 02:21:52;;;;;;;4.90;3.00;;;22.80;39.80;;;;;;5081391;27;88923;-70
2022/03/23 02:24:22;;;;;;;6.40;3.13;;;22.80;39.80;;;;;;5080326;27;92600;-69
2022/03/23 02:26:50;;;;;;;5.87;3.63;;;22.80;39.80;;;;;;5078682;27;90348;-69
2022/03/23 02:29:19;;;;;;;4.43;2.87;;;22.80;39.80;;;;;;5079346;27;90232;-73
2022/03/23 02:31:47;;;;;;;6.50;2.97;;;22.80;40.50;;;;;;5060516;27;88427;-74
2022/03/23 02:34:16;;;;;;;4.70;3.37;;;22.80;39.80;;;;;;5059885;27;89131;-74
2022/03/23 02:36:45;;;;;;;3.63;2.60;;;22.80;39.80;;;;;;5065847;27;90419;-74
2022/03/23 02:39:14;;;;;;;3.83;2.77;;;22.80;39.80;;;;;;5079978;27;88316;-73
2022/03/23 02:41:42;;;;;;;5.23;2.53;;;22.80;39.90;;;;;;5061230;27;88629;-74
2022/03/23 02:44:14;;;;;;;5.80;3.40;;;22.70;39.80;;;;;;5067281;27;90176;-74
2022/03/23 02:46:42;;;;;;;4.80;3.00;;;22.70;39.80;;;;;;5075147;27;91693;-74
2022/03/23 02:49:10;;;;;;;3.60;2.50;;;22.70;39.90;;;;;;5060034;27;89818;-73
2022/03/23 02:51:38;;;;;;;4.93;3.00;;;22.70;39.90;;;;;;5080359;27;88658;-74
2022/03/23 03:02:34;;;;;;;6.00;3.30;;;22.70;40.00;;;;;;5078966;27;88503;-74
2022/03/23 03:05:04;;;;;;;5.73;3.07;;;22.70;40.00;;;;;;5079783;27;89808;-73
2022/03/23 03:08:44;;;;;;;4.93;3.00;;;22.60;40.00;;;;;;5080009;27;91154;-74
2022/03/23 03:10:21;;;;;;;2.70;2.50;;;22.60;40.00;;;;;;5080069;27;88352;-74
2022/03/23 03:12:52;;;;;;;3.70;2.80;;;22.60;40.00;;;;;;5079015;27;88526;-75
2022/03/23 03:15:21;;;;;;;3.77;3.07;;;22.60;40.00;;;;;;5077920;27;89520;-74
2022/03/23 03:17:49;;;;;;;5.13;3.17;;;22.60;40.10;;;;;;5078062;27;90569;-74
2022/03/23 03:20:18;;;;;;;4.13;3.03;;;22.60;40.20;;;;;;5079396;27;89224;-70
2022/03/23 03:22:46;;;;;;;4.67;2.63;;;22.60;40.20;;;;;;5080304;27;88504;-70
2022/03/23 03:25:15;;;;;;;3.13;2.60;;;22.60;40.20;;;;;;5079907;27;89948;-69
2022/03/23 03:27:44;;;;;;;4.43;3.20;;;22.60;40.20;;;;;;5080409;27;91229;-70
2022/03/23 03:30:14;;;;;;;4.57;2.70;;;22.60;40.20;;;;;;5080002;27;90941;-70
2022/03/23 03:32:43;;;;;;;4.43;2.63;;;22.60;41.00;;;;;;5061898;27;88621;-70
2022/03/23 03:35:13;;;;;;;6.23;2.77;;;22.60;40.30;;;;;;5061501;27;90378;-74
2022/03/23 03:37:41;;;;;;;4.57;2.87;;;22.60;40.30;;;;;;5058957;27;89066;-69
2022/03/23 03:40:10;;;;;;;5.33;2.60;;;22.60;40.30;;;;;;5078779;27;88987;-74
2022/03/23 03:42:40;;;;;;;3.80;2.57;;;22.60;40.30;;;;;;5079539;27;88265;-70
2022/03/23 03:45:10;;;;;;;7.03;2.70;;;22.60;40.30;;;;;;5078175;27;89489;-73
2022/03/23 03:47:39;;;;;;;3.10;2.53;;;22.50;40.20;;;;;;5079222;27;93492;-70
2022/03/23 03:50:07;;;;;;;3.90;2.80;;;22.50;40.20;;;;;;5078296;27;88861;-69
2022/03/23 03:52:35;;;;;;;3.50;3.20;;;22.60;40.30;;;;;;5074579;27;88478;-74
2022/03/23 03:55:04;;;;;;;3.30;2.60;;;22.50;40.20;;;;;;5059985;27;90803;-73
2022/03/23 03:57:32;;;;;;;3.83;2.93;;;22.50;40.20;;;;;;5058740;27;89089;-69
2022/03/23 04:00:00;;;;;;;5.17;2.87;;;22.50;40.90;;;;;;5076393;27;88542;-70
2022/03/23 04:02:28;;;;;;;3.63;2.50;;;22.50;40.20;;;;;;5079760;27;88376;-69
2022/03/23 04:04:58;;;;;;;4.03;2.90;;;22.40;40.20;;;;;;5076553;27;89484;-74
2022/03/23 04:07:29;;;;;;;3.50;3.07;;;22.50;40.20;;;;;;5068712;27;91563;-72
2022/03/23 04:09:57;;;;;;;3.80;2.67;;;22.50;40.30;;;;;;5061977;27;92465;-74
2022/03/23 04:12:25;;;;;;;4.80;3.27;;;22.50;40.30;;;;;;5082699;27;88650;-73
2022/03/23 04:14:54;;;;;;;5.17;2.73;;;22.50;40.30;;;;;;5082640;27;92432;-74
2022/03/23 04:17:22;;;;;;;3.30;2.77;;;22.50;40.30;;;;;;5080884;27;88991;-74
2022/03/23 04:19:50;;;;;;;4.67;2.60;;;22.40;40.30;;;;;;5066868;27;88887;-74
2022/03/23 04:22:21;;;;;;;3.33;2.43;;;22.40;40.30;;;;;;5071483;27;88538;-74
2022/03/23 04:24:49;;;;;;;6.40;2.80;;;22.40;40.30;;;;;;5082747;27;89709;-74
2022/03/23 04:27:17;;;;;;;3.37;3.07;;;22.40;40.30;;;;;;5081443;27;90131;-74
2022/03/23 04:29:45;;;;;;;4.73;2.83;;;22.40;40.40;;;;;;5067094;27;88438;-74
2022/03/23 04:32:13;;;;;;;4.57;3.33;;;22.40;40.30;;;;;;5075278;27;88601;-74
2022/03/23 04:34:42;;;;;;;3.17;2.70;;;22.40;40.30;;;;;;5082855;27;89279;-74
2022/03/23 04:37:09;;;;;;;4.77;2.60;;;22.40;40.30;;;;;;5080994;27;90049;-73
2022/03/23 04:39:39;;;;;;;5.23;3.00;;;22.40;40.30;;;;;;5081443;27;89119;-74
2022/03/23 04:42:07;;;;;;;4.27;2.70;;;22.40;40.30;;;;;;5064874;27;88467;-74
2022/03/23 04:44:35;;;;;;;4.47;3.17;;;22.40;40.30;;;;;;5062170;27;91217;-74
2022/03/23 04:47:04;;;;;;;3.93;2.80;;;22.30;40.20;;;;;;5066509;27;90370;-74
2022/03/23 04:49:32;;;;;;;5.43;2.87;;;22.30;40.20;;;;;;5070313;27;88512;-73
2022/03/23 04:52:00;;;;;;;3.50;3.07;;;22.30;40.20;;;;;;5065782;27;88512;-74
2022/03/23 04:54:28;;;;;;;5.73;3.07;;;22.30;40.20;;;;;;5064628;27;89751;-75
2022/03/23 04:56:57;;;;;;;3.50;2.43;;;22.30;40.10;;;;;;5065068;27;88952;-74
2022/03/23 04:59:27;;;;;;;4.60;3.30;;;22.30;40.10;;;;;;5071189;27;88514;-73
2022/03/23 05:01:55;;;;;;;4.53;3.13;;;22.30;40.10;;;;;;5061883;27;88676;-74
2022/03/23 05:04:23;;;;;;;3.13;2.80;;;22.30;40.10;;;;;;5061530;27;90416;-74
2022/03/23 05:06:51;;;;;;;5.23;3.47;;;22.30;40.10;;;;;;5061688;27;90188;-74
2022/03/23 05:09:19;;;;;;;3.97;2.73;;;22.30;40.40;;;;;;5070640;27;88430;-74
2022/03/23 05:11:47;;;;;;;5.60;2.47;;;22.20;40.00;;;;;;5082848;27;88263;-74
2022/03/23 05:14:16;;;;;;;4.60;3.03;;;22.30;40.10;;;;;;5079621;27;90232;-74
2022/03/23 05:16:44;;;;;;;3.73;2.60;;;22.20;40.00;;;;;;5080323;27;89004;-73
2022/03/23 05:19:13;;;;;;;2.73;2.47;;;22.20;40.00;;;;;;5070440;27;91064;-74
2022/03/23 05:21:41;;;;;;;5.50;3.27;;;22.20;40.00;;;;;;5081805;27;88678;-74
2022/03/23 05:24:09;;;;;;;3.50;2.90;;;22.20;40.10;;;;;;5068771;27;90942;-74
2022/03/23 05:26:36;;;;;;;5.03;2.53;;;22.20;40.10;;;;;;5082376;27;88948;-73
2022/03/23 05:29:04;;;;;;;4.27;2.73;;;22.20;40.20;;;;;;5068971;27;89783;-74
2022/03/23 05:31:34;;;;;;;3.90;2.70;;;22.20;40.20;;;;;;5082471;27;88691;-74
2022/03/23 05:34:03;;;;;;;4.33;2.10;;;22.20;40.80;;;;;;5061669;27;89847;-74
2022/03/23 05:36:31;;;;;;;3.00;2.50;;;22.20;40.20;;;;;;5061805;27;89703;-74
2022/03/23 05:38:59;;;;;;;4.70;2.70;;;22.10;40.10;;;;;;5061647;27;88942;-73
2022/03/23 05:41:27;;;;;;;2.93;2.23;;;22.10;40.10;;;;;;5070769;27;88641;-73
2022/03/23 05:43:55;;;;;;;2.80;2.50;;;22.10;40.20;;;;;;5079722;27;93155;-74
2022/03/23 05:46:23;;;;;;;5.63;3.40;;;22.10;40.20;;;;;;5081216;27;90035;-74
2022/03/23 05:48:53;;;;;;;2.57;2.30;;;22.10;40.20;;;;;;5080181;27;88863;-74
2022/03/23 05:51:21;;;;;;;3.03;2.60;;;22.10;40.20;;;;;;5081803;27;88572;-74
2022/03/23 05:53:50;;;;;;;6.67;3.00;;;22.10;40.10;;;;;;5067173;27;91146;-74
2022/03/23 05:56:18;;;;;;;5.30;2.67;;;22.10;40.10;;;;;;5061172;27;90101;-74
2022/03/23 05:58:45;;;;;;;4.50;2.90;;;22.10;40.00;;;;;;5066715;27;88501;-74
2022/03/23 06:01:14;;;;;;;4.93;2.73;;;22.10;40.00;;;;;;5070053;27;88773;-74
2022/03/23 06:03:42;;;;;;;3.70;2.63;;;22.10;40.00;;;;;;5073914;27;90664;-74
2022/03/23 06:06:13;;;;;;;4.13;2.80;;;22.10;40.60;;;;;;5081284;27;89155;-74
2022/03/23 06:08:41;;;;;;;5.03;3.50;;;22.10;40.00;;;;;;5070394;27;89219;-74
2022/03/23 06:11:09;;;;;;;5.13;3.77;;;22.10;39.90;;;;;;5080761;27;88827;-74
2022/03/23 06:13:37;;;;;;;5.63;3.63;;;22.10;40.00;;;;;;5079054;27;90272;-74
2022/03/23 06:16:06;;;;;;;6.13;3.50;;;22.10;39.90;;;;;;5060196;27;88916;-74
2022/03/23 06:18:34;;;;;;;3.33;2.80;;;22.10;39.90;;;;;;5069430;27;89202;-75
2022/03/23 06:21:02;;;;;;;4.83;3.63;;;22.10;39.90;;;;;;5080642;27;88681;-74
2022/03/23 06:23:32;;;;;;;4.47;3.37;;;22.10;39.80;;;;;;5070551;27;89470;-74
2022/03/23 06:26:01;;;;;;;5.40;2.93;;;22.10;39.80;;;;;;5059301;27;89041;-74
2022/03/23 06:28:29;;;;;;;6.50;3.27;;;22.20;39.90;;;;;;5060690;27;88533;-74
2022/03/23 06:30:59;;;;;;;5.33;3.23;;;22.20;39.80;;;;;;5066290;27;88656;-74
2022/03/23 06:33:27;;;;;;;6.17;2.70;;;22.10;39.70;;;;;;5079523;27;89501;-75
2022/03/23 06:35:55;;;;;;;3.67;2.97;;;22.20;39.80;;;;;;5067710;27;88968;-75
2022/03/23 06:38:23;;;;;;;4.83;2.90;;;22.20;39.80;;;;;;5066778;27;90304;-73
2022/03/23 06:40:53;;;;;;;3.57;2.73;;;22.20;39.80;;;;;;5080823;27;88459;-73
2022/03/23 06:43:21;;;;;;;4.87;3.30;;;22.20;39.70;;;;;;5080524;27;90666;-74
2022/03/23 06:45:49;;;;;;;3.77;2.70;;;22.20;39.70;;;;;;5067070;27;88850;-74
2022/03/23 06:48:17;;;;;;;4.40;3.27;;;22.20;40.40;;;;;;5070739;27;90659;-74
2022/03/23 06:50:45;;;;;;;6.33;2.90;;;22.20;39.80;;;;;;5070631;27;88589;-74
2022/03/23 06:53:13;;;;;;;4.53;3.23;;;22.20;39.70;;;;;;5080493;27;93438;-73
2022/03/23 06:55:41;;;;;;;3.90;2.90;;;22.20;39.70;;;;;;5080092;27;90238;-73
2022/03/23 06:58:10;;;;;;;4.33;2.60;;;22.00;39.60;;;;;;5079993;27;88318;-72
2022/03/23 07:00:39;;;;;;;3.13;2.83;;;22.20;39.90;;;;;;5075395;27;88836;-73
2022/03/23 07:03:08;;;;;;;5.03;3.43;;;22.20;40.00;;;;;;5059125;27;90509;-73
2022/03/23 07:05:36;;;;;;;4.33;2.73;;;22.20;40.00;;;;;;5060609;27;88824;-72
2022/03/23 07:10:54;;;;;;;4.13;2.63;;;22.20;40.70;;;;;;5078707;27;88685;-72
2022/03/23 07:13:24;;;;;;;3.63;2.87;;;22.20;40.20;;;;;;5066400;27;90636;-73
2022/03/23 07:15:52;;;;;;;4.33;2.73;;;22.20;40.30;;;;;;5075056;27;91559;-73
2022/03/23 07:18:25;;;;;;;4.07;3.47;;;22.20;40.30;;;;;;5079083;27;88599;-73
2022/03/23 07:20:54;;;;;;;3.33;2.63;;;22.30;40.50;;;;;;5080036;27;88606;-73
2022/03/23 07:23:22;;;;;;;3.97;2.87;;;22.30;40.50;;;;;;5074454;27;92453;-74
2022/03/23 07:25:50;;;;;;;3.50;2.70;;;22.30;40.60;;;;;;5062696;27;89435;-72
2022/03/23 07:28:18;;;;;;;3.80;2.83;;;22.30;40.70;;;;;;5079845;27;88688;-72
2022/03/23 07:30:47;;;;;;;6.40;3.70;;;22.30;40.70;;;;;;5075848;27;88399;-72
2022/03/23 07:33:15;;;;;;;5.27;3.37;;;22.30;40.70;;;;;;5070350;27;89394;-72
2022/03/23 07:35:43;;;;;;;5.13;2.60;;;22.30;40.80;;;;;;5059654;27;89567;-72
2022/03/23 07:38:11;;;;;;;3.73;2.50;;;22.30;40.80;;;;;;5076073;27;88993;-73
2022/03/23 07:40:39;;;;;;;4.03;3.27;;;22.30;40.90;;;;;;5079944;27;88612;-72
2022/03/23 07:43:07;;;;;;;3.10;2.80;;;22.30;40.90;;;;;;5080071;27;90265;-72
2022/03/23 07:45:35;;;;;;;3.57;3.10;;;22.30;40.90;;;;;;5078827;27;90065;-72
2022/03/23 07:48:05;;;;;;;6.67;3.03;;;22.30;41.00;;;;;;5080020;27;88408;-73
2022/03/23 07:50:33;;;;;;;4.33;3.27;;;22.30;41.00;;;;;;5079736;27;88623;-72
2022/03/23 07:53:01;;;;;;;4.80;3.20;;;22.30;41.00;;;;;;5078907;27;90595;-73
2022/03/23 07:55:29;;;;;;;4.87;3.13;;;22.30;41.10;;;;;;5079396;27;88493;-73
2022/03/23 07:57:57;;;;;;;4.53;3.07;;;22.30;41.10;;;;;;5080125;27;88578;-73
2022/03/23 08:00:25;;;;;;;3.50;3.17;;;22.30;41.10;;;;;;5079407;27;88626;-73
2022/03/23 08:02:54;;;;;;;5.67;3.43;;;22.30;41.10;;;;;;5079363;27;89574;-75
2022/03/23 08:05:25;;;;;;;5.70;3.17;;;22.30;41.90;;;;;;5077035;27;89827;-73
2022/03/23 08:07:52;;;;;;;5.10;3.20;;;22.30;41.30;;;;;;5066262;27;88963;-73
2022/03/23 08:10:20;;;;;;;7.17;3.30;;;22.30;41.40;;;;;;5073604;27;88649;-72
2022/03/23 08:12:50;;;;;;;4.60;3.20;;;22.30;41.40;;;;;;5076897;27;89301;-72
2022/03/23 08:15:19;;;;;;;4.63;3.20;;;22.30;41.50;;;;;;5065761;27;90417;-73
2022/03/23 08:17:46;;;;;;;4.40;2.87;;;22.30;41.50;;;;;;5078480;27;89304;-73
2022/03/23 08:23:02;;;;;;;4.20;2.60;;;22.30;41.60;;;;;;5069714;27;91219;-72
2022/03/23 08:25:30;;;;;;;3.50;3.03;;;22.30;41.60;;;;;;5077091;27;90967;-73
2022/03/23 08:28:04;;;;;;;7.50;3.10;;;22.30;41.70;;;;;;5079024;27;89078;-73
2022/03/23 08:30:32;;;;;;;4.23;2.93;;;22.30;41.70;;;;;;5078430;27;88356;-73
2022/03/23 08:33:01;;;;;;;3.93;2.93;;;22.30;41.80;;;;;;5074054;27;89596;-71
2022/03/23 08:35:34;;;;;;;5.37;3.23;;;22.30;41.80;;;;;;5091061;27;89652;-73
2022/03/23 08:38:04;;;;;;;4.93;2.90;;;22.30;41.80;;;;;;5101215;27;88741;-72
2022/03/23 08:40:32;;;;;;;2.97;2.57;;;22.30;41.90;;;;;;5069053;27;88596;-72
2022/03/23 08:43:00;;;;;;;6.10;3.17;;;22.30;41.90;;;;;;5075597;27;89558;-72
2022/03/23 08:45:28;;;;;;;3.63;2.70;;;22.30;42.00;;;;;;5079387;27;91506;-73
2022/03/23 08:47:56;;;;;;;4.63;3.20;;;22.30;42.00;;;;;;5079078;27;88358;-72
2022/03/23 08:50:24;;;;;;;2.93;2.63;;;22.30;42.00;;;;;;5080744;27;88265;-72
2022/03/23 08:52:53;;;;;;;4.83;2.70;;;22.30;42.10;;;;;;5081794;27;90597;-72
2022/03/23 08:55:25;;;;;;;3.83;2.63;;;22.30;42.10;;;;;;5082513;27;90255;-73
2022/03/23 08:57:55;;;;;;;4.67;3.00;;;22.20;42.10;;;;;;5081089;27;88916;-73
2022/03/23 09:00:23;;;;;;;4.87;2.53;;;22.20;42.10;;;;;;5077212;27;88467;-73
2022/03/23 09:02:52;;;;;;;4.50;3.13;;;22.30;42.30;;;;;;5068587;27;90109;-73
2022/03/23 09:05:20;;;;;;;5.70;2.77;;;22.30;42.30;;;;;;5062623;27;88946;-72
2022/03/23 09:07:48;;;;;;;4.97;3.20;;;22.30;42.30;;;;;;5078459;27;91949;-72
2022/03/23 09:10:18;;;;;;;5.03;2.93;;;22.30;42.40;;;;;;5073139;27;88607;-73
2022/03/23 09:12:47;;;;;;;3.80;2.73;;;22.30;42.40;;;;;;5077637;27;89951;-73
2022/03/23 09:15:16;;;;;;;5.23;3.30;;;22.30;42.40;;;;;;5061722;27;89181;-72
2022/03/23 09:17:44;;;;;;;5.03;2.63;;;22.30;42.50;;;;;;5073580;27;91759;-74
2022/03/23 09:20:13;;;;;;;6.13;3.20;;;22.30;42.50;;;;;;5061313;27;88548;-75
2022/03/23 09:22:41;;;;;;;4.17;2.67;;;22.30;42.50;;;;;;5066092;27;89728;-74
2022/03/23 09:25:10;;;;;;;5.37;3.00;;;22.30;42.50;;;;;;5060836;27;88990;-75
2022/03/23 09:27:39;;;;;;;3.03;2.43;;;22.30;42.50;;;;;;5062475;27;88392;-75
2022/03/23 09:30:11;;;;;;;4.00;3.00;;;22.30;42.50;;;;;;5061756;27;88494;-75
2022/03/23 09:32:39;;;;;;;4.93;3.37;;;22.30;42.50;;;;;;5061470;27;89375;-75
2022/03/23 09:35:08;;;;;;;7.50;3.20;;;22.30;42.40;;;;;;5061117;27;90066;-75
2022/03/23 09:37:48;;;;;;;4.13;3.00;;;22.30;42.40;;;;;;5062162;27;88439;-75
2022/03/23 09:40:18;;;;;;;6.57;2.90;;;22.30;42.40;;;;;;5061464;27;88708;-76
2022/03/23 09:42:46;;;;;;;5.40;2.83;;;22.30;42.30;;;;;;5061546;27;89519;-75
2022/03/23 09:45:28;;;;;;;5.87;3.50;;;22.30;42.20;;;;;;5072689;27;89189;-75
2022/03/23 09:47:56;;;;;;;4.90;3.37;;;22.30;42.20;;;;;;5082628;27;88455;-76
2022/03/23 09:50:26;;;;;;;4.57;3.20;;;22.30;42.10;;;;;;5082370;27;88535;-75
2022/03/23 09:52:54;;;;;;;4.03;3.30;;;22.30;42.10;;;;;;5081475;27;93912;-75
2022/03/23 09:55:23;;;;;;;3.83;2.60;;;22.30;42.10;;;;;;5081522;27;89977;-75
2022/03/23 09:57:54;;;;;;;4.77;3.13;;;22.30;42.00;;;;;;5081979;27;88557;-75
2022/03/23 10:00:23;;;;;;;7.23;3.40;;;22.30;42.00;;;;;;5081600;27;88639;-75
2022/03/23 10:03:25;;;;;;;4.93;3.93;;;22.30;42.60;;;;;;5061209;27;89517;-75
2022/03/23 10:06:27;;;;;;;8.93;3.63;;;22.30;42.00;;;;;;5028300;27;88992;-75
2022/03/23 10:09:15;;;;;;;4.47;2.63;;;22.30;41.90;;;;;;5016654;27;88975;-75
2022/03/23 10:12:11;;;;;;;4.53;2.97;;;22.30;41.90;;;;;;5061353;27;88839;-75
2022/03/23 10:15:16;;;;;;;10.33;3.67;;;22.30;41.80;;;;;;5060503;27;89526;-76
2022/03/23 10:18:02;;;;;;;4.00;2.80;;;22.30;41.80;;;;;;5062116;27;92487;-75
2022/03/23 10:20:30;;;;;;;4.87;3.43;;;22.30;41.80;;;;;;5061122;27;90762;-75
2022/03/23 10:22:58;;;;;;;6.37;3.30;;;22.20;41.60;;;;;;5060838;27;88469;-75
2022/03/23 10:25:28;;;;;;;4.07;3.23;;;22.30;41.70;;;;;;5061101;27;90758;-75
2022/03/23 10:27:57;;;;;;;7.93;3.93;;;22.30;41.70;;;;;;5060413;27;91377;-75
2022/03/23 10:30:34;;;;;;;4.23;3.17;;;22.30;41.70;;;;;;5059852;27;89360;-75
2022/03/23 10:33:05;;;;;;;7.07;3.60;;;22.20;41.50;;;;;;5060167;27;88612;-75
2022/03/23 10:35:37;;;;;;;6.00;4.03;;;22.30;41.60;;;;;;5064445;27;89205;-75
2022/03/23 10:38:15;;;;;;;5.50;3.43;;;22.30;41.50;;;;;;5060417;27;91385;-75
2022/03/23 10:40:43;;;;;;;8.27;3.67;;;22.30;41.50;;;;;;5061041;27;88382;-75
2022/03/23 10:43:12;;;;;;;6.73;3.57;;;22.30;41.40;;;;;;5060729;27;88502;-76
2022/03/23 10:45:40;;;;;;;4.80;3.37;;;22.30;41.40;;;;;;5060308;27;92465;-75
2022/03/23 10:48:10;;;;;;;5.70;2.90;;;22.30;41.40;;;;;;5059933;27;90994;-75
2022/03/23 10:50:38;;;;;;;6.27;3.20;;;22.30;41.30;;;;;;5059953;27;89773;-75
2022/03/23 10:53:07;;;;;;;5.20;3.07;;;22.30;41.20;;;;;;5060737;27;88598;-75
2022/03/23 10:55:38;;;;;;;7.83;3.77;;;22.30;41.20;;;;;;5059734;27;88538;-75
2022/03/23 10:58:21;;;;;;;3.63;3.30;;;22.40;41.20;;;;;;5059917;27;90101;-75
2022/03/23 11:00:51;;;;;;;6.13;3.93;;;22.30;41.10;;;;;;5060334;27;88534;-75
2022/03/23 11:03:20;;;;;;;7.80;4.03;;;22.40;41.10;;;;;;5060788;27;88468;-75
2022/03/23 11:05:49;;;;;;;5.17;3.43;;;22.40;41.10;;;;;;5065009;27;88392;-75
2022/03/23 11:08:20;;;;;;;8.03;3.93;;;22.40;41.00;;;;;;5080392;27;90367;-75
2022/03/23 11:16:25;;;;;;;5.57;3.53;;;22.50;41.00;;;;;;5080737;27;90644;-75
2022/03/23 11:18:58;;;;;;;5.30;3.27;;;22.50;41.00;;;;;;5079958;27;89995;-75
2022/03/23 11:21:28;;;;;;;5.37;3.87;;;22.40;40.90;;;;;;5079338;27;90203;-74
2022/03/23 11:24:00;;;;;;;5.03;3.67;;;22.50;40.90;;;;;;5060745;27;88729;-75
2022/03/23 11:26:28;;;;;;;7.47;4.23;;;22.50;40.90;;;;;;5059670;27;89720;-75
2022/03/23 11:28:56;;;;;;;5.70;3.97;;;22.40;40.80;;;;;;5059310;27;89663;-75
2022/03/23 11:31:25;;;;;;;5.10;3.67;;;22.40;40.70;;;;;;5059842;27;91436;-75
2022/03/23 11:33:54;;;;;;;5.77;4.27;;;22.50;40.80;;;;;;5060490;27;88331;-75
2022/03/23 11:36:23;;;;;;;5.97;3.47;;;22.50;40.80;;;;;;5059875;27;90703;-75
2022/03/23 11:38:52;;;;;;;7.47;3.83;;;22.50;40.70;;;;;;5059835;27;91942;-75
2022/03/23 11:41:20;;;;;;;9.57;3.90;;;22.50;40.70;;;;;;5059669;27;90167;-75
2022/03/23 11:43:48;;;;;;;7.30;3.90;;;22.50;40.60;;;;;;5059476;27;88482;-75
2022/03/23 11:46:21;;;;;;;7.30;3.97;;;22.50;40.60;;;;;;5058831;27;89192;-75
2022/03/23 11:49:00;;;;;;;5.27;3.50;;;22.50;40.60;;;;;;5059670;27;90261;-75
2022/03/23 11:51:49;;;;;;;7.30;3.97;;;22.50;40.60;;;;;;5059584;27;88676;-75
2022/03/23 11:54:22;;;;;;;4.83;3.57;;;22.50;40.60;;;;;;5059850;27;88504;-75
2022/03/23 11:56:55;;;;;;;6.63;3.73;;;22.50;40.50;;;;;;5059894;27;90139;-75
2022/03/23 11:59:24;;;;;;;6.67;4.27;;;22.50;40.50;;;;;;5058347;27;88491;-75
2022/03/23 12:01:52;;;;;;;8.67;4.50;;;22.50;40.50;;;;;;5059296;27;88502;-75
2022/03/23 12:04:21;;;;;;;6.30;3.57;;;22.50;40.50;;;;;;5059342;27;88371;-75
2022/03/23 12:06:59;;;;;;;7.17;4.10;;;22.50;40.50;;;;;;5058554;27;89643;-75
2022/03/23 12:09:31;;;;;;;7.33;3.97;;;22.60;40.50;;;;;;5059187;27;88370;-75
2022/03/23 12:12:00;;;;;;;7.30;3.47;;;22.60;40.50;;;;;;5062330;27;88557;-75
2022/03/23 12:14:29;;;;;;;3.60;2.80;;;22.60;40.40;;;;;;5080118;27;88357;-75
2022/03/23 12:17:19;;;;;;;4.63;3.67;;;22.60;40.40;;;;;;5079017;27;90009;-75
2022/03/23 12:20:08;;;;;;;5.43;3.70;;;22.60;40.40;;;;;;5079818;27;89020;-75
2022/03/23 12:22:55;;;;;;;9.93;3.47;;;22.60;40.40;;;;;;5080039;27;88779;-75
2022/03/23 12:25:25;;;;;;;6.43;4.47;;;22.60;40.30;;;;;;5081936;27;88644;-75
2022/03/23 12:27:58;;;;;;;8.40;3.80;;;22.70;40.40;;;;;;5082431;27;89697;-75
2022/03/23 12:30:35;;;;;;;4.23;3.33;;;22.60;40.30;;;;;;5062500;27;89721;-75
2022/03/23 12:33:10;;;;;;;4.93;3.00;;;22.60;40.30;;;;;;5062641;27;89498;-75
2022/03/23 12:35:38;;;;;;;6.47;4.00;;;22.70;40.30;;;;;;5062750;27;88597;-75
2022/03/23 12:38:18;;;;;;;5.63;3.83;;;22.70;40.30;;;;;;5075776;27;90679;-75
2022/03/23 12:40:47;;;;;;;4.97;3.50;;;22.70;40.30;;;;;;5083250;27;92955;-75
2022/03/23 12:43:36;;;;;;;5.53;3.47;;;22.70;40.30;;;;;;5075088;27;90214;-75
2022/03/23 12:46:05;;;;;;;7.23;3.43;;;22.70;40.30;;;;;;5062849;27;88497;-75
2022/03/23 12:59:44;;;;;;;5.57;3.47;;;22.80;40.40;;;;;;5065894;27;89625;-75
2022/03/23 13:02:28;;;;;;;3.50;3.03;;;22.80;40.30;;;;;;5082740;27;90336;-75
2022/03/23 13:04:57;;;;;;;7.00;3.20;;;22.80;40.40;;;;;;5082841;27;91717;-75
2022/03/23 13:07:40;;;;;;;3.70;2.63;;;22.90;40.40;;;;;;5082681;27;88618;-75
2022/03/23 13:10:11;;;;;;;4.77;3.27;;;22.80;40.40;;;;;;5082722;27;89220;-74
2022/03/23 13:12:39;;;;;;;4.67;3.13;;;22.80;40.30;;;;;;5081393;27;89005;-75
2022/03/23 13:15:12;;;;;;;4.73;2.57;;;22.90;40.40;;;;;;5082365;27;88978;-75
2022/03/23 13:17:41;;;;;;;6.03;3.17;;;22.90;40.40;;;;;;5068369;27;90259;-75
2022/03/23 13:20:10;;;;;;;6.20;3.20;;;22.90;40.30;;;;;;5061363;27;89623;-75
2022/03/23 13:22:39;;;;;;;3.50;2.30;;;23.00;40.40;;;;;;5061353;27;90101;-75
2022/03/23 13:25:10;;;;;;;3.60;3.13;;;23.00;40.40;;;;;;5061408;27;88619;-75
2022/03/23 13:27:38;;;;;;;5.30;2.60;;;23.00;40.40;;;;;;5061944;27;88592;-75
2022/03/23 13:30:08;;;;;;;6.43;2.97;;;23.10;40.50;;;;;;5061373;27;91732;-75
2022/03/23 13:32:39;;;;;;;4.87;3.27;;;23.00;40.30;;;;;;5062798;27;90077;-75
2022/03/23 13:35:17;;;;;;;7.13;3.07;;;23.10;40.30;;;;;;5060363;27;88395;-75